createdAt,value
2019-06-20T00:01:14.460Z,32.33
2019-06-20T00:03:42.592Z,37.90
2019-06-20T00:06:10.794Z,44.90
2019-06-20T00:08:39.013Z,51.37
2019-06-20T00:11:07.217Z,54.03
2019-06-20T00:13:35.389Z,62.62
2019-06-20T00:16:03.851Z,62.45
2019-06-20T00:18:31.972Z,65.62
2019-06-20T00:21:00.120Z,66.95
2019-06-20T00:23:28.297Z,64.62
2019-06-20T00:25:56.435Z,63.50
2019-06-20T00:28:24.554Z,61.23
2019-06-20T00:30:52.714Z,62.45
2019-06-20T00:33:20.848Z,58.10
2019-06-20T00:35:49.033Z,61.63
2019-06-20T00:38:17.199Z,66.12
2019-06-20T00:40:45.352Z,61.35
2019-06-20T00:43:17.822Z,61.83
2019-06-20T00:45:43.389Z,57.50
2019-06-20T00:48:11.511Z,60.33
2019-06-20T00:50:41.252Z,58.85
2019-06-20T00:53:09.431Z,63.95
2019-06-20T00:55:37.565Z,64.45
2019-06-20T00:58:05.703Z,63.38
2019-06-20T01:00:33.866Z,66.95
2019-06-20T01:03:02.231Z,64.22
2019-06-20T01:05:30.463Z,63.70
2019-06-20T01:07:58.621Z,64.42
2019-06-20T01:10:26.777Z,67.92
2019-06-20T01:12:54.959Z,66.92
2019-06-20T01:15:23.099Z,60.43
2019-06-20T01:17:51.260Z,58.10
2019-06-20T01:20:19.720Z,59.40
2019-06-20T01:22:47.947Z,63.63
2019-06-20T01:25:17.648Z,61.55
2019-06-20T01:27:45.827Z,61.92
2019-06-20T01:30:14.039Z,57.70
2019-06-20T01:32:42.210Z,52.78
2019-06-20T01:35:10.435Z,55.75
2019-06-20T01:37:38.559Z,49.30
2019-06-20T01:40:07.335Z,48.48
2019-06-20T01:42:35.480Z,50.23
2019-06-20T01:45:04.039Z,47.48
2019-06-20T01:47:32.204Z,48.33
2019-06-20T01:50:00.345Z,48.95
2019-06-20T01:52:28.469Z,47.38
2019-06-20T01:54:56.654Z,49.00
2019-06-20T01:57:24.800Z,46.15
2019-06-20T01:59:52.935Z,47.20
2019-06-20T02:02:21.087Z,46.98
2019-06-20T02:04:49.229Z,46.73
2019-06-20T02:07:17.372Z,46.60
2019-06-20T02:09:45.566Z,45.98
2019-06-20T02:12:13.741Z,46.35
2019-06-20T02:14:41.868Z,49.13
2019-06-20T02:17:10.107Z,46.65
2019-06-20T02:19:38.279Z,49.70
2019-06-20T02:22:06.495Z,52.45
2019-06-20T02:24:34.643Z,48.78
2019-06-20T02:27:02.769Z,49.95
2019-06-20T02:29:30.930Z,53.17
2019-06-20T02:31:59.066Z,48.30
2019-06-20T02:34:27.190Z,54.58
2019-06-20T02:36:55.366Z,46.92
2019-06-20T02:39:23.482Z,50.80
2019-06-20T02:41:51.628Z,47.88
2019-06-20T02:44:29.812Z,47.13
2019-06-20T02:46:49.676Z,48.38
2019-06-20T02:49:17.798Z,45.90
2019-06-20T02:51:47.589Z,44.53
2019-06-20T02:54:15.730Z,43.42
2019-06-20T02:56:43.847Z,42.53
2019-06-20T02:59:11.996Z,43.20
2019-06-20T03:01:40.149Z,41.70
2019-06-20T03:04:08.257Z,40.90
2019-06-20T03:06:36.525Z,40.30
2019-06-20T03:09:06.409Z,40.28
2019-06-20T03:11:34.558Z,42.27
2019-06-20T03:14:02.710Z,40.05
2019-06-20T03:16:30.871Z,39.80
2019-06-20T03:18:58.996Z,40.43
2019-06-20T03:21:27.138Z,40.17
2019-06-20T03:23:55.303Z,38.95
2019-06-20T03:26:23.479Z,36.35
2019-06-20T03:28:51.649Z,37.00
2019-06-20T03:31:19.831Z,39.15
2019-06-20T03:33:47.962Z,36.98
2019-06-20T03:36:16.170Z,35.35
2019-06-20T03:38:44.278Z,36.40
2019-06-20T03:41:12.426Z,34.50
2019-06-20T03:43:40.575Z,35.55
2019-06-20T03:46:08.715Z,34.60
2019-06-20T03:48:36.847Z,32.15
2019-06-20T03:51:05.017Z,32.48
2019-06-20T03:53:33.209Z,31.37
2019-06-20T03:56:01.334Z,30.15
2019-06-20T03:58:29.487Z,30.45
2019-06-20T04:00:57.652Z,29.92
2019-06-20T04:03:25.755Z,29.27
2019-06-20T04:05:53.968Z,28.60
2019-06-20T04:08:22.148Z,29.05
2019-06-20T04:10:50.297Z,25.88
2019-06-20T04:13:18.514Z,26.05
2019-06-20T04:15:46.639Z,24.20
2019-06-20T04:18:14.836Z,26.23
2019-06-20T04:20:43.009Z,26.12
2019-06-20T04:23:11.140Z,23.65
2019-06-20T04:25:39.357Z,22.40
2019-06-20T04:28:07.590Z,22.05
2019-06-20T04:30:35.745Z,21.02
2019-06-20T04:33:03.875Z,21.50
2019-06-20T04:35:32.729Z,20.85
2019-06-20T04:38:00.888Z,18.90
2019-06-20T04:40:29.018Z,19.80
2019-06-20T04:42:57.186Z,19.12
2019-06-20T04:45:34.553Z,19.23
2019-06-20T04:47:55.191Z,18.37
2019-06-20T04:50:23.355Z,20.20
2019-06-20T04:52:51.477Z,17.95
2019-06-20T04:55:19.586Z,17.65
2019-06-20T04:57:47.806Z,16.85
2019-06-20T05:00:16.071Z,17.42
2019-06-20T05:02:44.289Z,17.80
2019-06-20T05:05:13.630Z,17.48
2019-06-20T05:07:42.077Z,17.27
2019-06-20T05:10:10.434Z,17.67
2019-06-20T05:12:38.582Z,17.55
2019-06-20T05:15:06.836Z,17.10
2019-06-20T05:17:34.978Z,18.10
2019-06-20T05:20:03.326Z,17.57
2019-06-20T05:22:31.488Z,17.45
2019-06-20T05:24:59.667Z,18.30
2019-06-20T05:27:27.845Z,16.55
2019-06-20T05:29:55.973Z,16.32
2019-06-20T05:32:24.142Z,16.62
2019-06-20T05:34:52.311Z,16.30
2019-06-20T05:37:20.479Z,15.98
2019-06-20T05:39:48.650Z,15.25
2019-06-20T05:42:16.778Z,16.32
2019-06-20T05:44:44.982Z,16.35
2019-06-20T05:47:14.093Z,14.80
2019-06-20T05:49:42.667Z,14.53
2019-06-20T05:52:10.843Z,15.13
2019-06-20T05:54:39.821Z,14.47
2019-06-20T05:57:08.082Z,14.60
2019-06-20T05:59:36.237Z,14.28
2019-06-20T06:02:04.660Z,14.40
2019-06-20T06:04:32.913Z,15.30
2019-06-20T06:07:01.094Z,14.33
2019-06-20T06:09:29.241Z,14.65
2019-06-20T06:11:57.527Z,14.60
2019-06-20T06:14:25.729Z,13.68
2019-06-20T06:16:53.862Z,13.83
2019-06-20T06:19:22.006Z,13.72
2019-06-20T06:21:50.340Z,13.10
2019-06-20T06:24:18.500Z,14.28
2019-06-20T06:26:46.770Z,13.18
2019-06-20T06:29:14.915Z,13.13
2019-06-20T06:31:43.064Z,12.58
2019-06-20T06:34:11.176Z,12.33
2019-06-20T06:36:39.412Z,13.05
2019-06-20T06:39:08.925Z,12.43
2019-06-20T06:41:37.066Z,13.38
2019-06-20T06:44:07.619Z,13.22
2019-06-20T06:46:45.828Z,12.50
2019-06-20T06:49:05.008Z,12.78
2019-06-20T06:51:33.164Z,13.83
2019-06-20T06:54:01.282Z,13.03
2019-06-20T06:56:29.442Z,12.60
2019-06-20T06:58:57.576Z,12.65
2019-06-20T07:01:25.693Z,13.65
2019-06-20T07:03:53.928Z,13.50
2019-06-20T07:06:22.055Z,13.30
2019-06-20T07:08:50.206Z,13.25
2019-06-20T07:11:18.394Z,11.83
2019-06-20T07:13:46.554Z,13.78
2019-06-20T07:16:14.690Z,13.40
2019-06-20T07:18:42.812Z,12.95
2019-06-20T07:21:10.981Z,13.05
2019-06-20T07:23:39.115Z,12.80
2019-06-20T07:26:07.265Z,12.50
2019-06-20T07:28:35.435Z,13.18
2019-06-20T07:31:03.578Z,12.40
2019-06-20T07:33:31.729Z,11.90
2019-06-20T07:35:59.989Z,12.13
2019-06-20T07:38:28.153Z,11.60
2019-06-20T07:40:56.313Z,12.20
2019-06-20T07:43:24.483Z,12.85
2019-06-20T07:46:02.478Z,11.65
2019-06-20T07:48:22.495Z,13.10
2019-06-20T07:50:50.678Z,12.50
2019-06-20T07:53:18.823Z,12.68
2019-06-20T07:55:46.982Z,12.85
2019-06-20T07:58:15.228Z,12.73
2019-06-20T08:00:43.416Z,12.03
2019-06-20T08:03:11.568Z,11.68
2019-06-20T08:05:39.722Z,11.48
2019-06-20T08:08:07.991Z,10.58
2019-06-20T08:10:36.165Z,11.30
2019-06-20T08:13:04.468Z,10.43
2019-06-20T08:15:32.643Z,9.90
2019-06-20T08:18:00.815Z,9.98
2019-06-20T08:20:28.985Z,9.28
2019-06-20T08:22:57.261Z,9.25
2019-06-20T08:25:25.497Z,9.38
2019-06-20T08:27:53.675Z,9.28
2019-06-20T08:30:24.175Z,9.65
2019-06-20T08:32:52.327Z,8.53
2019-06-20T08:35:23.161Z,8.33
2019-06-20T08:37:52.061Z,8.75
2019-06-20T08:40:21.368Z,9.25
2019-06-20T08:42:49.528Z,9.58
2019-06-20T08:45:18.098Z,10.28
2019-06-20T08:47:46.269Z,10.32
2019-06-20T08:50:14.746Z,9.65
2019-06-20T08:52:42.850Z,7.67
2019-06-20T08:55:11.109Z,8.20
2019-06-20T08:57:39.280Z,7.78
2019-06-20T09:00:07.641Z,8.00
2019-06-20T09:02:35.783Z,7.50
2019-06-20T09:05:04.340Z,8.33
2019-06-20T09:07:32.490Z,8.68
2019-06-20T09:10:01.954Z,7.30
2019-06-20T09:12:30.349Z,8.00
2019-06-20T09:14:59.121Z,8.45
2019-06-20T09:17:27.545Z,8.53
2019-06-20T09:19:55.947Z,9.55
2019-06-20T09:22:24.084Z,8.55
2019-06-20T09:24:53.330Z,9.30
2019-06-20T09:27:21.864Z,10.38
2019-06-20T09:29:50.122Z,9.60
2019-06-20T09:32:18.310Z,9.43
2019-06-20T09:34:46.457Z,10.78
2019-06-20T09:37:14.588Z,10.05
2019-06-20T09:39:42.755Z,10.68
2019-06-20T09:42:10.955Z,9.53
2019-06-20T09:44:39.103Z,10.53
2019-06-20T09:47:07.365Z,10.85
2019-06-20T09:49:35.618Z,12.10
2019-06-20T09:52:03.792Z,11.25
2019-06-20T09:54:31.981Z,12.05
2019-06-20T09:57:00.092Z,12.53
2019-06-20T09:59:28.244Z,12.13
2019-06-20T10:01:58.541Z,13.13
2019-06-20T10:04:26.400Z,13.28
2019-06-20T10:06:54.581Z,13.75
2019-06-20T10:09:22.826Z,13.55
2019-06-20T10:11:51.919Z,14.35
2019-06-20T10:14:20.693Z,14.50
2019-06-20T10:16:50.987Z,14.80
2019-06-20T10:19:18.786Z,14.93
2019-06-20T10:21:47.851Z,15.40
2019-06-20T10:24:16.246Z,15.18
2019-06-20T10:26:44.905Z,15.78
2019-06-20T10:29:14.459Z,15.63
2019-06-20T10:31:42.724Z,16.02
2019-06-20T10:34:10.909Z,16.35
2019-06-20T10:36:39.112Z,17.57
2019-06-20T10:39:09.015Z,16.87
2019-06-20T10:41:37.185Z,17.98
2019-06-20T10:44:05.542Z,17.40
2019-06-20T10:46:33.736Z,18.35
2019-06-20T10:49:01.916Z,16.90
2019-06-20T10:51:30.082Z,17.37
2019-06-20T10:53:58.222Z,17.65
2019-06-20T10:56:26.462Z,18.32
2019-06-20T10:58:54.718Z,17.95
2019-06-20T11:01:22.880Z,18.20
2019-06-20T11:03:51.096Z,19.98
2019-06-20T11:06:19.232Z,18.35
2019-06-20T11:08:49.406Z,21.68
2019-06-20T11:11:17.981Z,20.40
2019-06-20T11:13:46.581Z,19.85
2019-06-20T11:16:14.876Z,27.58
2019-06-20T11:18:43.651Z,29.20
2019-06-20T11:21:11.901Z,28.35
2019-06-20T11:23:40.868Z,30.70
2019-06-20T11:26:09.296Z,30.60
2019-06-20T11:28:38.240Z,28.25
2019-06-20T11:31:07.370Z,30.45
2019-06-20T11:33:37.131Z,28.35
2019-06-20T11:36:05.454Z,26.02
2019-06-20T11:38:33.616Z,33.73
2019-06-20T11:41:01.804Z,23.90
2019-06-20T11:43:29.953Z,22.32
2019-06-20T11:45:58.095Z,18.75
2019-06-20T11:48:26.276Z,17.82
2019-06-20T11:50:54.436Z,20.88
2019-06-20T11:53:22.638Z,20.72
2019-06-20T11:55:50.794Z,19.90
2019-06-20T11:58:19.013Z,20.17
2019-06-20T12:01:02.597Z,20.65
2019-06-20T12:03:17.641Z,21.85
2019-06-20T12:05:47.206Z,19.23
2019-06-20T12:08:15.486Z,18.87
2019-06-20T12:10:45.155Z,19.42
2019-06-20T12:13:13.436Z,18.10
2019-06-20T12:15:42.761Z,18.92
2019-06-20T12:18:11.199Z,18.30
2019-06-20T12:20:41.048Z,16.48
2019-06-20T12:23:09.163Z,16.85
2019-06-20T12:25:39.072Z,12.75
2019-06-20T12:28:07.245Z,12.93
2019-06-20T12:30:35.416Z,13.53
2019-06-20T12:33:03.569Z,14.35
2019-06-20T12:35:31.711Z,12.85
2019-06-20T12:37:59.838Z,13.00
2019-06-20T12:40:28.024Z,12.37
2019-06-20T12:42:56.184Z,12.03
2019-06-20T12:45:24.312Z,11.97
2019-06-20T12:47:52.573Z,11.35
2019-06-20T12:50:22.320Z,11.08
2019-06-20T12:52:50.471Z,12.03
2019-06-20T12:55:18.819Z,11.83
2019-06-20T12:57:48.344Z,12.30
2019-06-20T13:00:18.501Z,13.40
2019-06-20T13:02:47.442Z,14.95
2019-06-20T13:05:16.636Z,13.15
2019-06-20T13:07:46.207Z,11.53
2019-06-20T13:10:16.684Z,11.95
2019-06-20T13:12:46.160Z,10.55
2019-06-20T13:15:14.839Z,10.40
2019-06-20T13:17:43.697Z,13.03
2019-06-20T13:20:12.995Z,11.38
2019-06-20T13:22:42.723Z,12.07
2019-06-20T13:25:11.116Z,11.73
2019-06-20T13:27:40.972Z,10.82
2019-06-20T13:30:11.341Z,8.88
2019-06-20T13:32:41.227Z,8.85
2019-06-20T13:35:09.582Z,9.25
2019-06-20T13:37:38.242Z,8.85
2019-06-20T13:40:09.714Z,8.98
2019-06-20T13:42:39.069Z,8.63
2019-06-20T13:45:15.517Z,8.43
2019-06-20T13:47:43.750Z,8.28
2019-06-20T13:50:12.510Z,10.00
2019-06-20T13:52:43.569Z,9.55
2019-06-20T13:55:10.709Z,10.48
2019-06-20T13:57:41.181Z,10.35
2019-06-20T14:00:09.743Z,10.38
2019-06-20T14:02:38.093Z,9.03
2019-06-20T14:05:06.722Z,8.33
2019-06-20T14:07:34.900Z,8.38
2019-06-20T14:10:03.480Z,8.45
2019-06-20T14:12:31.597Z,7.92
2019-06-20T14:14:59.784Z,8.15
2019-06-20T14:17:27.909Z,6.78
2019-06-20T14:19:56.562Z,7.08
2019-06-20T14:22:24.852Z,7.75
2019-06-20T14:24:53.688Z,7.60
2019-06-20T14:27:21.894Z,7.35
2019-06-20T14:29:50.875Z,5.92
2019-06-20T14:32:22.372Z,5.60
2019-06-20T14:34:50.329Z,6.12
2019-06-20T14:37:18.757Z,6.90
2019-06-20T14:39:46.948Z,4.92
2019-06-20T14:42:15.077Z,5.33
2019-06-20T14:44:44.658Z,5.45
2019-06-20T14:47:13.131Z,5.85
2019-06-20T14:49:41.285Z,5.25
2019-06-20T14:52:09.514Z,5.00
2019-06-20T14:54:37.753Z,3.75
2019-06-20T14:57:05.906Z,3.10
2019-06-20T14:59:35.456Z,3.30
2019-06-20T15:02:03.841Z,3.35
2019-06-20T15:04:32.049Z,3.70
2019-06-20T15:07:00.232Z,4.37
2019-06-20T15:09:28.334Z,4.33
2019-06-20T15:11:56.479Z,4.40
2019-06-20T15:14:24.669Z,4.15
2019-06-20T15:16:53.691Z,4.90
2019-06-20T15:19:22.172Z,4.62
2019-06-20T15:21:50.296Z,4.92
2019-06-20T15:24:22.610Z,4.75
2019-06-20T15:26:52.344Z,4.83
2019-06-20T15:29:22.399Z,5.08
2019-06-20T15:31:50.660Z,3.70
2019-06-20T15:34:18.827Z,3.45
2019-06-20T15:36:48.626Z,3.75
2019-06-20T15:39:19.851Z,4.08
2019-06-20T15:41:48.805Z,3.00
2019-06-20T15:44:17.968Z,2.30
2019-06-20T15:46:48.284Z,2.40
2019-06-20T15:49:16.608Z,2.30
2019-06-20T15:51:48.062Z,2.12
2019-06-20T15:54:16.199Z,1.50
2019-06-20T15:56:44.384Z,1.60
2019-06-20T15:59:12.538Z,1.42
2019-06-20T16:01:40.681Z,1.50
2019-06-20T16:04:08.937Z,1.37
2019-06-20T16:06:35.953Z,1.40
2019-06-20T16:09:09.180Z,1.80
2019-06-20T16:11:37.524Z,1.77
2019-06-20T16:14:05.781Z,1.90
2019-06-20T16:16:34.003Z,2.00
2019-06-20T16:19:02.402Z,2.22
2019-06-20T16:21:36.137Z,2.62
2019-06-20T16:24:04.533Z,3.05
2019-06-20T16:26:35.524Z,2.60
2019-06-20T16:29:06.286Z,3.22
2019-06-20T16:31:37.582Z,3.85
2019-06-20T16:34:05.820Z,3.90
2019-06-20T16:36:34.002Z,3.40
2019-06-20T16:39:02.127Z,3.75
2019-06-20T16:41:30.430Z,4.60
2019-06-20T16:43:58.588Z,3.22
2019-06-20T16:46:26.828Z,3.00
2019-06-20T16:48:54.992Z,3.77
2019-06-20T16:51:23.177Z,3.80
2019-06-20T16:53:52.587Z,4.50
2019-06-20T16:56:23.152Z,3.87
2019-06-20T16:58:51.334Z,4.12
2019-06-20T17:01:21.825Z,3.92
2019-06-20T17:03:49.988Z,3.65
2019-06-20T17:06:19.756Z,4.03
2019-06-20T17:08:47.948Z,4.83
2019-06-20T17:11:16.494Z,4.05
2019-06-20T17:13:46.157Z,4.55
2019-06-20T17:16:19.484Z,4.80
2019-06-20T17:18:52.303Z,4.33
2019-06-20T17:21:20.160Z,5.05
2019-06-20T17:23:48.403Z,4.58
2019-06-20T17:26:16.600Z,4.75
2019-06-20T17:28:49.619Z,4.53
2019-06-20T17:31:17.826Z,4.00
2019-06-20T17:33:57.204Z,4.87
2019-06-20T17:36:18.520Z,4.42
2019-06-20T17:38:46.711Z,4.50
2019-06-20T17:41:15.045Z,3.62
2019-06-20T17:43:43.219Z,4.03
2019-06-20T17:46:15.268Z,4.25
2019-06-20T17:48:43.133Z,4.47
2019-06-20T17:51:13.213Z,3.77
2019-06-20T17:53:42.453Z,5.03
2019-06-20T17:56:10.580Z,5.05
2019-06-20T17:58:38.818Z,4.72
2019-06-20T18:01:07.014Z,4.80
2019-06-20T18:03:35.279Z,3.08
2019-06-20T18:06:03.420Z,2.15
2019-06-20T18:08:31.652Z,2.60
2019-06-20T18:10:59.924Z,2.40
2019-06-20T18:13:31.295Z,3.00
2019-06-20T18:15:59.691Z,2.80
2019-06-20T18:18:29.885Z,2.70
2019-06-20T18:20:58.098Z,3.02
2019-06-20T18:23:26.383Z,3.00
2019-06-20T18:25:56.968Z,2.80
2019-06-20T18:28:25.115Z,3.05
2019-06-20T18:30:53.448Z,3.17
2019-06-20T18:33:21.647Z,3.27
2019-06-20T18:35:52.774Z,3.90
2019-06-20T18:38:25.392Z,3.40
2019-06-20T18:40:53.719Z,3.33
2019-06-20T18:43:21.894Z,3.65
2019-06-20T18:45:50.085Z,3.98
2019-06-20T18:48:18.320Z,4.10
2019-06-20T18:50:46.484Z,3.62
2019-06-20T18:53:17.864Z,4.05
2019-06-20T18:55:46.059Z,4.50
2019-06-20T18:58:14.285Z,3.67
2019-06-20T19:00:42.436Z,3.80
2019-06-20T19:03:10.719Z,4.17
2019-06-20T19:05:38.964Z,3.77
2019-06-20T19:08:08.925Z,4.40
2019-06-20T19:10:37.109Z,4.05
2019-06-20T19:13:05.294Z,4.40
2019-06-20T19:15:39.927Z,4.53
2019-06-20T19:18:09.181Z,4.08
2019-06-20T19:20:37.499Z,4.45
2019-06-20T19:23:05.731Z,3.98
2019-06-20T19:25:36.838Z,4.10
2019-06-20T19:28:05.065Z,4.33
2019-06-20T19:30:45.578Z,4.20
2019-06-20T19:35:40.997Z,4.35
2019-06-20T19:38:09.170Z,4.25
2019-06-20T19:40:41.123Z,4.42
2019-06-20T19:43:09.242Z,4.65
2019-06-20T19:45:37.373Z,4.70
2019-06-20T19:48:05.514Z,4.40
2019-06-20T19:50:33.646Z,4.78
2019-06-20T19:53:01.794Z,3.80
2019-06-20T19:55:30.023Z,4.40
2019-06-20T19:57:58.281Z,4.35
2019-06-20T20:00:26.445Z,4.67
2019-06-20T20:02:54.613Z,5.20
2019-06-20T20:05:22.867Z,5.58
2019-06-20T20:07:51.068Z,5.42
2019-06-20T20:10:41.453Z,5.12
2019-06-20T20:13:09.582Z,5.22
2019-06-20T20:15:37.715Z,5.10
2019-06-20T20:18:05.903Z,5.70
2019-06-20T20:20:33.996Z,5.33
2019-06-20T20:23:02.349Z,4.75
2019-06-20T20:25:30.545Z,5.55
2019-06-20T20:27:58.727Z,4.97
2019-06-20T20:30:27.721Z,5.08
2019-06-20T20:32:55.881Z,4.85
2019-06-20T20:35:34.792Z,5.22
2019-06-20T20:37:53.888Z,5.17
2019-06-20T20:40:22.840Z,6.03
2019-06-20T20:42:51.088Z,5.50
2019-06-20T20:45:19.888Z,5.67
2019-06-20T20:47:48.001Z,5.62
2019-06-20T20:50:16.187Z,6.30
2019-06-20T20:52:44.326Z,6.10
2019-06-20T20:55:14.102Z,5.60
2019-06-20T20:57:42.269Z,6.03
2019-06-20T21:00:12.750Z,6.00
2019-06-20T21:05:08.233Z,6.95
2019-06-20T21:07:39.135Z,6.17
2019-06-20T21:10:06.736Z,6.33
2019-06-20T21:12:34.910Z,6.28
2019-06-20T21:15:03.295Z,6.78
2019-06-20T21:17:31.425Z,6.30
2019-06-20T21:19:59.863Z,7.47
2019-06-20T21:22:27.985Z,6.35
2019-06-20T21:24:56.152Z,7.00
2019-06-20T21:27:24.441Z,7.25
2019-06-20T21:29:52.553Z,7.35
2019-06-20T21:32:20.684Z,8.05
2019-06-20T21:34:48.860Z,7.10
2019-06-20T21:37:16.978Z,7.90
2019-06-20T21:39:45.105Z,8.33
2019-06-20T21:42:13.271Z,8.73
2019-06-20T21:44:41.414Z,9.50
2019-06-20T21:47:09.561Z,10.20
2019-06-20T21:49:37.714Z,10.32
2019-06-20T21:52:05.939Z,10.23
2019-06-20T21:54:34.071Z,9.65
2019-06-20T21:57:02.308Z,10.35
2019-06-20T21:59:30.458Z,11.22
2019-06-20T22:01:58.623Z,11.43
2019-06-20T22:04:26.794Z,9.83
2019-06-20T22:06:54.980Z,11.20
2019-06-20T22:09:23.105Z,12.70
2019-06-20T22:11:51.263Z,11.53
2019-06-20T22:14:19.455Z,11.97
2019-06-20T22:16:47.584Z,12.00
2019-06-20T22:19:15.717Z,13.13
2019-06-20T22:21:43.852Z,12.33
2019-06-20T22:24:12.130Z,11.53
2019-06-20T22:26:40.361Z,12.50
2019-06-20T22:29:08.520Z,11.40
2019-06-20T22:31:36.704Z,11.80
2019-06-20T22:34:04.834Z,11.65
2019-06-20T22:36:40.070Z,11.43
2019-06-20T22:39:03.643Z,11.28
2019-06-20T22:41:31.846Z,13.35
2019-06-20T22:44:00.008Z,12.88
2019-06-20T22:46:28.190Z,13.28
2019-06-20T22:48:56.335Z,12.80
2019-06-20T22:51:24.483Z,13.03
2019-06-20T22:53:52.732Z,13.55
2019-06-20T22:56:20.913Z,14.83
2019-06-20T22:58:49.052Z,12.98
2019-06-20T23:01:17.217Z,12.93
2019-06-20T23:03:45.363Z,14.23
2019-06-20T23:06:13.495Z,14.83
2019-06-20T23:08:41.639Z,15.23
2019-06-20T23:11:09.824Z,14.00
2019-06-20T23:13:37.953Z,13.95
2019-06-20T23:16:06.095Z,16.52
2019-06-20T23:18:34.279Z,16.23
2019-06-20T23:21:04.831Z,17.50
2019-06-20T23:23:32.296Z,18.50
2019-06-20T23:26:00.470Z,16.80
2019-06-20T23:28:28.596Z,17.20
2019-06-20T23:30:56.734Z,17.32
2019-06-20T23:33:24.939Z,17.62
2019-06-20T23:35:53.108Z,19.20
2019-06-20T23:38:21.259Z,17.67
2019-06-20T23:40:49.426Z,18.45
2019-06-20T23:43:17.572Z,19.85
2019-06-20T23:45:45.693Z,20.97
2019-06-20T23:48:13.874Z,21.00
2019-06-20T23:50:42.168Z,23.65
2019-06-20T23:53:10.360Z,22.05
2019-06-20T23:55:38.633Z,24.77
2019-06-20T23:58:06.963Z,23.55
